createdAt,value
2022-10-09T00:01:03.740Z,90.5
2022-10-09T00:06:03.712Z,90.3
2022-10-09T00:11:04.705Z,90.5
2022-10-09T00:16:03.725Z,90.4
2022-10-09T00:21:03.957Z,90.8
2022-10-09T00:26:03.721Z,91.1
2022-10-09T00:31:03.753Z,91.2
2022-10-09T00:36:03.731Z,91.2
2022-10-09T00:41:03.725Z,91.0
2022-10-09T00:46:04.282Z,91.3
2022-10-09T00:51:03.970Z,91.7
2022-10-09T00:56:03.734Z,91.7
2022-10-09T01:01:03.759Z,91.7
2022-10-09T01:06:03.737Z,91.8
2022-10-09T01:11:03.738Z,91.8
2022-10-09T01:16:03.791Z,91.9
2022-10-09T01:21:04.234Z,91.8
2022-10-09T01:26:03.753Z,91.6
2022-10-09T01:31:03.814Z,91.6
2022-10-09T01:36:03.759Z,91.7
2022-10-09T01:41:03.765Z,91.8
2022-10-09T01:46:03.818Z,91.6
2022-10-09T01:51:04.018Z,91.8
2022-10-09T01:56:04.819Z,91.8
2022-10-09T02:01:03.776Z,92.2
2022-10-09T02:06:03.774Z,92.4
2022-10-09T02:11:03.786Z,92.2
2022-10-09T02:16:03.823Z,92.1
2022-10-09T02:21:04.032Z,92.1
2022-10-09T02:26:03.784Z,92.4
2022-10-09T02:31:04.379Z,92.4
2022-10-09T02:36:03.787Z,92.8
2022-10-09T02:41:03.794Z,92.5
2022-10-09T02:46:03.867Z,92.4
2022-10-09T02:51:04.042Z,92.6
2022-10-09T02:56:03.806Z,92.9
2022-10-09T03:01:03.808Z,93.1
2022-10-09T03:06:04.311Z,92.9
2022-10-09T03:11:03.826Z,92.6
2022-10-09T03:16:03.857Z,92.1
2022-10-09T03:21:04.056Z,92.1
2022-10-09T03:26:03.821Z,92.8
2022-10-09T03:31:03.874Z,93.0
2022-10-09T03:36:03.830Z,92.8
2022-10-09T03:41:04.843Z,92.7
2022-10-09T03:46:03.827Z,92.7
2022-10-09T03:51:04.074Z,93.0
2022-10-09T03:56:03.836Z,93.4
2022-10-09T04:01:03.973Z,93.6
2022-10-09T04:06:03.843Z,93.6
2022-10-09T04:11:03.840Z,93.4
2022-10-09T04:16:04.356Z,93.4
2022-10-09T04:21:04.103Z,93.8
2022-10-09T04:26:03.857Z,93.5
2022-10-09T04:31:03.864Z,93.5
2022-10-09T04:36:03.858Z,93.6
2022-10-09T04:41:03.861Z,93.5
2022-10-09T04:46:03.896Z,93.3
2022-10-09T04:51:04.355Z,93.6
2022-10-09T04:56:04.109Z,93.4
2022-10-09T05:01:03.905Z,93.5
2022-10-09T05:06:03.873Z,93.3
2022-10-09T05:11:03.877Z,93.3
2022-10-09T05:16:03.910Z,93.2
2022-10-09T05:21:03.884Z,93.1
2022-10-09T05:26:04.367Z,93.3
2022-10-09T05:31:04.125Z,93.3
2022-10-09T05:36:03.891Z,93.7
2022-10-09T05:41:03.894Z,93.6
2022-10-09T05:46:03.973Z,93.2
2022-10-09T05:51:03.908Z,93.5
2022-10-09T05:56:03.905Z,93.3
2022-10-09T06:01:04.227Z,93.1
2022-10-09T06:06:04.252Z,93.3
2022-10-09T06:11:03.914Z,93.4
2022-10-09T06:16:03.913Z,93.6
2022-10-09T06:21:03.919Z,93.4
2022-10-09T06:26:03.921Z,93.8
2022-10-09T06:31:03.996Z,94.1
2022-10-09T06:36:10.015Z,94.2
2022-10-09T06:41:04.183Z,94.4
2022-10-09T06:46:03.961Z,94.4
2022-10-09T06:51:03.934Z,94.5
2022-10-09T06:56:03.953Z,94.4
2022-10-09T07:01:04.003Z,94.5
2022-10-09T07:06:03.942Z,94.5
2022-10-09T07:11:04.943Z,94.3
2022-10-09T07:16:04.961Z,94.2
2022-10-09T07:21:03.948Z,94.5
2022-10-09T07:26:03.950Z,94.5
2022-10-09T07:31:04.050Z,94.4
2022-10-09T07:36:03.955Z,94.4
2022-10-09T07:41:03.961Z,94.1
2022-10-09T07:46:05.041Z,94.0
2022-10-09T07:51:04.209Z,93.9
2022-10-09T07:56:03.975Z,94.0
2022-10-09T08:01:04.012Z,94.1
2022-10-09T08:06:03.976Z,93.8
2022-10-09T08:11:03.975Z,93.6
2022-10-09T08:16:04.084Z,93.7
2022-10-09T08:21:04.477Z,93.6
2022-10-09T08:26:04.238Z,93.6
2022-10-09T08:31:04.014Z,93.0
2022-10-09T08:36:03.994Z,92.7
2022-10-09T08:41:03.990Z,92.7
2022-10-09T08:46:04.030Z,92.7
2022-10-09T08:51:03.998Z,92.4
2022-10-09T08:56:05.005Z,92.8
2022-10-09T09:01:04.245Z,91.4
2022-10-09T09:06:04.003Z,91.4
2022-10-09T09:11:04.019Z,91.5
2022-10-09T09:16:04.065Z,91.3
2022-10-09T09:21:04.024Z,91.6
2022-10-09T09:26:04.021Z,91.0
2022-10-09T09:31:04.354Z,90.9
2022-10-09T09:36:04.800Z,91.1
2022-10-09T09:41:04.033Z,90.1
2022-10-09T09:46:04.046Z,88.7
2022-10-09T09:51:23.519Z,86.0
2022-10-09T09:56:04.036Z,86.6
2022-10-09T10:01:04.097Z,83.5
2022-10-09T10:06:04.524Z,81.7
2022-10-09T10:11:04.303Z,82.9
2022-10-09T10:16:04.111Z,80.6
2022-10-09T10:21:04.056Z,79.6
2022-10-09T10:26:04.057Z,78.4
2022-10-09T10:31:04.156Z,79.9
2022-10-09T10:36:04.069Z,80.2
2022-10-09T10:41:04.325Z,80.2
2022-10-09T10:46:04.307Z,77.6
2022-10-09T10:51:04.067Z,74.6
2022-10-09T10:56:05.395Z,74.0
2022-10-09T11:01:04.175Z,74.9
2022-10-09T11:06:04.078Z,72.2
2022-10-09T11:11:04.082Z,72.7
2022-10-09T11:16:05.143Z,71.3
2022-10-09T11:21:04.325Z,67.5
2022-10-09T11:26:04.104Z,66.7
2022-10-09T11:31:04.270Z,69.5
2022-10-09T11:36:04.103Z,69.4
2022-10-09T11:41:07.312Z,66.6
2022-10-09T11:46:04.641Z,65.1
2022-10-09T11:51:04.361Z,63.6
2022-10-09T11:56:04.110Z,66.3
2022-10-09T12:01:04.196Z,66.2
2022-10-09T12:06:04.109Z,67.3
2022-10-09T12:11:04.127Z,65.8
2022-10-09T12:16:04.613Z,63.8
2022-10-09T12:21:04.454Z,61.6
2022-10-09T12:26:04.123Z,62.3
2022-10-09T12:31:04.202Z,58.2
2022-10-09T12:36:04.133Z,62.3
2022-10-09T12:41:04.131Z,60.3
2022-10-09T12:46:04.461Z,60.4
2022-10-09T12:51:04.389Z,62.5
2022-10-09T12:56:04.158Z,59.0
2022-10-09T13:01:04.292Z,58.3
2022-10-09T13:06:04.154Z,58.5
2022-10-09T13:11:04.163Z,59.0
2022-10-09T13:16:04.662Z,57.9
2022-10-09T13:21:04.404Z,59.1
2022-10-09T13:26:04.197Z,61.1
2022-10-09T13:31:04.217Z,60.2
2022-10-09T13:36:04.191Z,61.5
2022-10-09T13:41:04.170Z,61.5
2022-10-09T13:46:04.479Z,58.0
2022-10-09T13:51:04.423Z,57.2
2022-10-09T13:56:04.189Z,59.7
2022-10-09T14:01:04.260Z,59.4
2022-10-09T14:06:04.195Z,57.6
2022-10-09T14:11:04.195Z,60.3
2022-10-09T14:16:04.441Z,55.9
2022-10-09T14:21:04.441Z,58.3
2022-10-09T14:26:04.203Z,60.8
2022-10-09T14:31:04.206Z,58.8
2022-10-09T14:36:04.212Z,58.7
2022-10-09T14:41:04.210Z,61.0
2022-10-09T14:46:04.708Z,60.6
2022-10-09T14:51:04.565Z,60.9
2022-10-09T14:56:04.219Z,59.2
2022-10-09T15:01:04.225Z,58.7
2022-10-09T15:06:04.225Z,58.1
2022-10-09T15:11:04.230Z,57.2
2022-10-09T15:16:04.740Z,60.1
2022-10-09T15:21:04.491Z,57.3
2022-10-09T15:26:04.243Z,60.1
2022-10-09T15:31:04.243Z,61.5
2022-10-09T15:36:04.239Z,62.3
2022-10-09T15:41:04.248Z,61.9
2022-10-09T15:46:04.521Z,61.1
2022-10-09T15:51:04.505Z,59.8
2022-10-09T15:56:04.266Z,60.4
2022-10-09T16:01:04.260Z,63.2
2022-10-09T16:06:04.265Z,62.4
2022-10-09T16:11:04.273Z,62.8
2022-10-09T16:16:04.756Z,63.8
2022-10-09T16:21:04.517Z,66.2
2022-10-09T16:26:04.273Z,64.2
2022-10-09T16:31:04.272Z,65.9
2022-10-09T16:36:04.276Z,66.9
2022-10-09T16:41:04.300Z,69.1
2022-10-09T16:46:05.294Z,70.0
2022-10-09T16:51:04.533Z,70.8
2022-10-09T16:56:04.299Z,69.8
2022-10-09T17:01:08.869Z,70.0
2022-10-09T17:06:04.301Z,71.7
2022-10-09T17:11:04.292Z,74.1
2022-10-09T17:16:04.301Z,76.0
2022-10-09T17:21:05.039Z,77.4
2022-10-09T17:26:04.304Z,77.9
2022-10-09T17:31:04.312Z,79.0
2022-10-09T17:36:04.322Z,78.6
2022-10-09T17:41:04.324Z,79.2
2022-10-09T17:46:04.327Z,79.8
2022-10-09T17:51:04.817Z,80.5
2022-10-09T17:56:04.324Z,80.8
2022-10-09T18:01:04.387Z,81.3
2022-10-09T18:06:04.335Z,81.0
2022-10-09T18:11:04.341Z,81.5
2022-10-09T18:16:04.341Z,81.7
2022-10-09T18:21:05.088Z,82.2
2022-10-09T18:26:04.352Z,82.2
2022-10-09T18:31:04.351Z,82.5
2022-10-09T18:36:04.349Z,82.7
2022-10-09T18:41:04.350Z,82.5
2022-10-09T18:46:04.355Z,82.6
2022-10-09T18:51:04.865Z,82.9
2022-10-09T18:56:04.359Z,84.4
2022-10-09T19:01:07.348Z,84.1
2022-10-09T19:06:04.375Z,84.1
2022-10-09T19:11:04.374Z,84.1
2022-10-09T19:16:04.370Z,84.5
2022-10-09T19:21:05.095Z,84.7
2022-10-09T19:26:04.384Z,84.2
2022-10-09T19:31:04.376Z,84.3
2022-10-09T19:36:04.393Z,84.6
2022-10-09T19:41:04.384Z,84.7
2022-10-09T19:46:04.389Z,84.7
2022-10-09T19:51:05.183Z,84.9
2022-10-09T19:56:04.397Z,85.4
2022-10-09T20:01:04.468Z,85.1
2022-10-09T20:06:04.410Z,85.5
2022-10-09T20:11:04.415Z,85.4
2022-10-09T20:16:04.407Z,86.2
2022-10-09T20:21:04.661Z,86.5
2022-10-09T20:26:04.904Z,86.4
2022-10-09T20:31:04.417Z,86.9
2022-10-09T20:36:04.417Z,87.4
2022-10-09T20:41:04.419Z,87.4
2022-10-09T20:46:04.432Z,87.6
2022-10-09T20:51:04.669Z,88.0
2022-10-09T20:56:04.948Z,88.0
2022-10-09T21:01:04.495Z,87.9
2022-10-09T21:06:04.437Z,87.4
2022-10-09T21:11:04.435Z,88.5
2022-10-09T21:16:04.456Z,88.6
2022-10-09T21:21:04.710Z,88.9
2022-10-09T21:26:04.699Z,89.4
2022-10-09T21:31:04.458Z,89.1
2022-10-09T21:36:04.447Z,88.8
2022-10-09T21:41:04.454Z,88.8
2022-10-09T21:46:04.461Z,88.7
2022-10-09T21:51:04.709Z,88.8
2022-10-09T21:56:05.455Z,88.8
2022-10-09T22:01:04.506Z,88.8
2022-10-09T22:06:04.466Z,88.9
2022-10-09T22:11:04.486Z,88.8
2022-10-09T22:16:04.474Z,88.7
2022-10-09T22:21:04.725Z,88.4
2022-10-09T22:26:04.477Z,88.5
2022-10-09T22:31:04.993Z,88.4
2022-10-09T22:36:04.485Z,88.6
2022-10-09T22:41:04.490Z,88.5
2022-10-09T22:46:04.494Z,88.8
2022-10-09T22:51:04.737Z,88.9
2022-10-09T22:56:04.494Z,88.9
2022-10-09T23:01:05.069Z,89.1
2022-10-09T23:06:04.496Z,89.2
2022-10-09T23:11:04.497Z,89.2
2022-10-09T23:16:04.509Z,89.1
2022-10-09T23:21:04.743Z,89.0
2022-10-09T23:26:04.513Z,89.3
2022-10-09T23:31:05.014Z,89.4
2022-10-09T23:36:04.524Z,89.5
2022-10-09T23:41:04.520Z,89.5
2022-10-09T23:46:04.525Z,89.4
2022-10-09T23:51:04.768Z,89.6
2022-10-09T23:56:04.529Z,89.6
